createdAt,value
2019-05-14T00:01:31.299Z,99.90
2019-05-14T00:04:02.076Z,99.90
2019-05-14T00:06:33.161Z,99.90
2019-05-14T00:09:06.778Z,99.90
2019-05-14T00:11:37.572Z,99.90
2019-05-14T00:14:08.513Z,99.90
2019-05-14T00:16:39.403Z,99.90
2019-05-14T00:19:11.824Z,99.90
2019-05-14T00:21:42.595Z,99.90
2019-05-14T00:24:13.311Z,99.90
2019-05-14T00:26:44.083Z,99.90
2019-05-14T00:29:16.164Z,99.90
2019-05-14T00:31:46.902Z,99.90
2019-05-14T00:34:17.720Z,99.90
2019-05-14T00:36:48.450Z,99.90
2019-05-14T00:39:21.329Z,99.90
2019-05-14T00:41:52.113Z,99.90
2019-05-14T00:44:23.036Z,99.90
2019-05-14T00:46:54.906Z,99.90
2019-05-14T00:49:25.833Z,99.90
2019-05-14T00:51:56.672Z,99.90
2019-05-14T00:54:27.482Z,99.90
2019-05-14T00:57:01.444Z,99.90
2019-05-14T00:59:32.351Z,99.90
2019-05-14T01:02:03.295Z,99.90
2019-05-14T01:04:34.327Z,99.90
2019-05-14T01:07:05.031Z,99.90
2019-05-14T01:09:36.372Z,99.90
2019-05-14T01:12:07.707Z,99.90
2019-05-14T01:14:38.430Z,99.90
2019-05-14T01:17:11.282Z,99.90
2019-05-14T01:19:42.680Z,99.90
2019-05-14T01:22:13.550Z,99.90
2019-05-14T01:24:44.394Z,99.90
2019-05-14T01:27:16.757Z,99.90
2019-05-14T01:29:47.760Z,99.90
2019-05-14T01:32:18.533Z,99.90
2019-05-14T01:34:49.403Z,99.90
2019-05-14T01:37:21.986Z,99.90
2019-05-14T01:39:52.884Z,99.90
2019-05-14T01:42:23.679Z,99.90
2019-05-14T01:44:54.545Z,99.90
2019-05-14T01:47:27.238Z,99.90
2019-05-14T01:49:57.980Z,99.90
2019-05-14T01:52:28.758Z,99.90
2019-05-14T01:55:01.993Z,99.90
2019-05-14T01:57:32.068Z,99.90
2019-05-14T02:00:02.944Z,99.90
2019-05-14T02:02:33.980Z,99.90
2019-05-14T02:05:07.047Z,99.90
2019-05-14T02:07:39.135Z,99.90
2019-05-14T02:10:11.616Z,99.90
2019-05-14T02:12:42.577Z,99.90
2019-05-14T02:15:15.522Z,99.90
2019-05-14T02:17:48.521Z,99.90
2019-05-14T02:20:21.546Z,99.90
2019-05-14T02:22:52.532Z,99.90
2019-05-14T02:25:23.406Z,99.90
2019-05-14T02:27:55.637Z,99.90
2019-05-14T02:30:40.826Z,99.90
2019-05-14T02:32:59.618Z,99.90
2019-05-14T02:35:30.604Z,99.90
2019-05-14T02:38:02.617Z,99.90
2019-05-14T02:40:33.471Z,99.90
2019-05-14T02:43:04.546Z,99.90
2019-05-14T02:45:35.302Z,99.90
2019-05-14T02:48:09.438Z,99.90
2019-05-14T02:50:39.688Z,99.90
2019-05-14T02:53:10.875Z,99.90
2019-05-14T02:55:41.650Z,99.90
2019-05-14T02:58:12.493Z,99.90
2019-05-14T03:00:43.220Z,99.90
2019-05-14T03:03:14.007Z,99.90
2019-05-14T03:05:45.405Z,99.90
2019-05-14T03:08:22.619Z,99.90
2019-05-14T03:10:54.489Z,99.90
2019-05-14T03:13:25.313Z,99.90
2019-05-14T03:15:59.049Z,99.90
2019-05-14T03:18:30.052Z,99.90
2019-05-14T03:21:01.406Z,99.90
2019-05-14T03:23:32.409Z,99.90
2019-05-14T03:26:03.177Z,99.90
2019-05-14T03:28:34.115Z,99.90
2019-05-14T03:31:05.160Z,99.90
2019-05-14T03:33:35.992Z,99.90
2019-05-14T03:36:11.396Z,99.90
2019-05-14T03:38:40.429Z,99.90
2019-05-14T03:41:14.060Z,99.90
2019-05-14T03:43:43.828Z,99.90
2019-05-14T03:46:14.643Z,99.90
2019-05-14T03:48:49.237Z,99.90
2019-05-14T03:51:20.449Z,99.90
2019-05-14T03:54:01.158Z,99.90
2019-05-14T04:01:29.907Z,99.90
2019-05-14T04:04:00.942Z,99.90
2019-05-14T04:06:32.481Z,99.90
2019-05-14T04:09:09.467Z,99.90
2019-05-14T04:11:40.737Z,99.90
2019-05-14T04:14:13.910Z,99.90
2019-05-14T04:17:01.406Z,99.90
2019-05-14T04:19:21.745Z,99.90
2019-05-14T04:21:53.297Z,99.90
2019-05-14T04:24:25.495Z,99.90
2019-05-14T04:27:07.514Z,99.90
2019-05-14T04:29:31.325Z,99.90
2019-05-14T04:32:03.845Z,99.90
2019-05-14T04:34:35.025Z,99.90
2019-05-14T04:37:09.782Z,99.90
2019-05-14T04:39:40.543Z,99.90
2019-05-14T04:42:11.355Z,99.90
2019-05-14T04:44:42.149Z,99.90
2019-05-14T04:47:27.954Z,99.90
2019-05-14T04:49:50.203Z,99.90
2019-05-14T04:52:20.458Z,99.90
2019-05-14T04:54:52.723Z,99.90
2019-05-14T04:57:25.625Z,99.90
2019-05-14T04:59:59.630Z,99.90
2019-05-14T05:02:30.428Z,99.90
2019-05-14T05:05:01.918Z,99.90
2019-05-14T05:10:03.332Z,99.90
2019-05-14T05:12:34.183Z,99.90
2019-05-14T05:15:08.524Z,99.90
2019-05-14T05:17:47.153Z,99.90
2019-05-14T05:20:12.604Z,99.90
2019-05-14T05:22:43.359Z,99.90
2019-05-14T05:25:14.251Z,99.90
2019-05-14T05:27:45.108Z,99.90
2019-05-14T05:30:16.188Z,99.90
2019-05-14T05:32:49.250Z,99.90
2019-05-14T05:35:20.557Z,99.90
2019-05-14T05:37:51.523Z,99.90
2019-05-14T05:40:24.030Z,99.90
2019-05-14T05:42:54.832Z,99.90
2019-05-14T05:45:25.566Z,99.90
2019-05-14T05:48:01.003Z,99.90
2019-05-14T05:50:28.915Z,99.90
2019-05-14T05:52:59.880Z,99.90
2019-05-14T05:55:30.657Z,99.90
2019-05-14T05:58:01.642Z,99.90
2019-05-14T06:00:35.418Z,99.90
2019-05-14T06:03:10.248Z,99.90
2019-05-14T06:05:39.108Z,99.90
2019-05-14T06:08:11.527Z,99.90
2019-05-14T06:10:42.313Z,99.90
2019-05-14T06:13:14.070Z,99.90
2019-05-14T06:15:49.533Z,99.90
2019-05-14T06:18:22.110Z,99.90
2019-05-14T06:20:53.403Z,99.90
2019-05-14T06:23:24.374Z,99.90
2019-05-14T06:25:55.014Z,99.90
2019-05-14T06:28:32.175Z,99.90
2019-05-14T06:30:59.130Z,99.90
2019-05-14T06:33:29.937Z,99.90
2019-05-14T06:36:00.763Z,99.90
2019-05-14T06:38:32.730Z,99.90
2019-05-14T06:41:03.474Z,99.90
2019-05-14T06:43:34.300Z,99.90
2019-05-14T06:46:05.202Z,99.90
2019-05-14T06:48:39.308Z,99.90
2019-05-14T06:51:09.401Z,99.90
2019-05-14T06:53:40.337Z,99.90
2019-05-14T06:56:11.919Z,99.90
2019-05-14T06:58:49.198Z,99.90
2019-05-14T07:01:21.409Z,98.40
2019-05-14T07:03:52.281Z,97.60
2019-05-14T07:06:23.083Z,94.10
2019-05-14T07:08:55.329Z,94.90
2019-05-14T07:11:26.196Z,95.50
2019-05-14T07:13:58.073Z,95.00
2019-05-14T07:16:29.076Z,97.30
2019-05-14T07:19:01.113Z,95.70
2019-05-14T07:21:31.859Z,98.40
2019-05-14T07:24:02.720Z,99.30
2019-05-14T07:26:33.691Z,99.90
2019-05-14T07:29:11.253Z,99.90
2019-05-14T07:31:38.635Z,99.90
2019-05-14T07:34:10.601Z,96.60
2019-05-14T07:36:41.486Z,93.80
2019-05-14T07:39:13.645Z,98.00
2019-05-14T07:41:44.559Z,99.90
2019-05-14T07:44:15.431Z,99.90
2019-05-14T07:46:48.168Z,99.90
2019-05-14T07:49:18.616Z,99.90
2019-05-14T07:51:49.331Z,99.90
2019-05-14T07:54:20.277Z,99.70
2019-05-14T07:56:52.901Z,96.20
2019-05-14T07:59:24.551Z,98.00
2019-05-14T08:01:55.300Z,99.90
2019-05-14T08:04:26.174Z,99.90
2019-05-14T08:06:58.296Z,99.90
2019-05-14T08:09:30.695Z,99.90
2019-05-14T08:12:01.527Z,99.90
2019-05-14T08:14:42.614Z,99.90
2019-05-14T08:17:05.032Z,99.90
2019-05-14T08:19:38.637Z,99.90
2019-05-14T08:22:09.799Z,99.90
2019-05-14T08:24:40.773Z,99.90
2019-05-14T08:27:11.530Z,99.90
2019-05-14T08:29:42.603Z,99.90
2019-05-14T08:32:13.513Z,99.90
2019-05-14T08:34:44.339Z,99.90
2019-05-14T08:37:15.137Z,99.90
2019-05-14T08:39:48.593Z,99.90
2019-05-14T08:42:19.679Z,99.90
2019-05-14T08:44:52.288Z,99.90
2019-05-14T08:47:24.118Z,99.90
2019-05-14T08:49:54.919Z,99.90
2019-05-14T08:52:28.578Z,99.90
2019-05-14T08:55:07.289Z,99.90
2019-05-14T08:57:30.858Z,97.80
2019-05-14T09:00:04.189Z,98.00
2019-05-14T09:02:35.926Z,99.90
2019-05-14T09:05:10.231Z,99.90
2019-05-14T09:07:40.101Z,99.60
2019-05-14T09:10:12.145Z,96.30
2019-05-14T09:12:44.629Z,96.40
2019-05-14T09:15:15.504Z,96.50
2019-05-14T09:17:48.535Z,99.40
2019-05-14T09:20:19.144Z,99.90
2019-05-14T09:22:49.974Z,99.90
2019-05-14T09:25:20.916Z,99.90
2019-05-14T09:27:51.757Z,99.90
2019-05-14T09:30:22.890Z,99.90
2019-05-14T09:32:53.864Z,99.90
2019-05-14T09:35:25.229Z,99.90
2019-05-14T09:37:59.267Z,99.90
2019-05-14T09:40:29.852Z,99.50
2019-05-14T09:43:02.326Z,98.60
2019-05-14T09:45:33.467Z,98.50
2019-05-14T09:48:04.744Z,99.00
2019-05-14T09:50:38.135Z,99.80
2019-05-14T09:53:09.857Z,96.30
2019-05-14T09:55:41.614Z,92.40
2019-05-14T09:58:13.039Z,91.50
2019-05-14T10:00:45.360Z,87.80
2019-05-14T10:03:19.251Z,81.60
2019-05-14T10:05:50.994Z,82.50
2019-05-14T10:08:22.148Z,83.50
2019-05-14T10:10:55.033Z,78.00
2019-05-14T10:13:28.157Z,74.40
2019-05-14T10:15:59.062Z,71.90
2019-05-14T10:18:30.508Z,64.00
2019-05-14T10:21:02.062Z,62.60
2019-05-14T10:23:33.308Z,64.60
2019-05-14T10:26:04.347Z,71.20
2019-05-14T10:28:35.054Z,71.20
2019-05-14T10:31:09.173Z,72.50
2019-05-14T10:33:38.456Z,72.50
2019-05-14T10:36:09.439Z,72.40
2019-05-14T10:38:40.180Z,70.40
2019-05-14T10:41:12.607Z,72.20
2019-05-14T10:43:43.471Z,74.10
2019-05-14T10:46:14.579Z,76.10
2019-05-14T10:48:45.859Z,78.50
2019-05-14T10:51:18.996Z,78.10
2019-05-14T10:53:49.851Z,79.20
2019-05-14T10:56:21.743Z,79.10
2019-05-14T10:58:54.703Z,80.50
2019-05-14T11:01:25.414Z,82.00
2019-05-14T11:03:56.155Z,83.70
2019-05-14T11:06:29.112Z,85.80
2019-05-14T11:08:59.302Z,84.00
2019-05-14T11:11:31.417Z,81.90
2019-05-14T11:14:02.308Z,82.60
2019-05-14T11:16:33.242Z,84.10
2019-05-14T11:19:04.064Z,84.40
2019-05-14T11:21:35.015Z,86.90
2019-05-14T11:24:05.921Z,87.60
2019-05-14T11:26:39.188Z,89.30
2019-05-14T11:29:09.271Z,89.20
2019-05-14T11:31:41.533Z,90.00
2019-05-14T11:34:12.331Z,90.50
2019-05-14T11:36:43.044Z,90.30
2019-05-14T11:39:13.817Z,90.00
2019-05-14T11:41:44.637Z,89.30
2019-05-14T11:44:15.316Z,82.70
2019-05-14T11:46:52.510Z,76.30
2019-05-14T11:49:19.427Z,77.10
2019-05-14T11:52:06.817Z,77.50
2019-05-14T11:54:23.866Z,79.80
2019-05-14T11:56:54.790Z,83.70
2019-05-14T11:59:25.711Z,81.90
2019-05-14T12:01:59.299Z,81.80
2019-05-14T12:04:30.418Z,80.10
2019-05-14T12:07:01.218Z,81.90
2019-05-14T12:09:31.959Z,82.80
2019-05-14T12:12:03.936Z,81.20
2019-05-14T12:14:34.949Z,82.50
2019-05-14T12:17:09.308Z,82.60
2019-05-14T12:19:43.268Z,82.40
2019-05-14T12:22:12.378Z,80.60
2019-05-14T12:24:43.226Z,79.10
2019-05-14T12:27:14.085Z,76.40
2019-05-14T12:29:44.984Z,73.60
2019-05-14T12:32:18.710Z,74.00
2019-05-14T12:34:48.848Z,73.10
2019-05-14T12:37:21.076Z,73.50
2019-05-14T12:39:51.908Z,75.40
2019-05-14T12:42:22.846Z,74.20
2019-05-14T12:44:53.682Z,77.50
2019-05-14T12:47:24.620Z,71.30
2019-05-14T12:49:55.344Z,65.80
2019-05-14T12:52:26.381Z,65.00
2019-05-14T12:54:59.741Z,67.20
2019-05-14T12:57:30.143Z,64.70
2019-05-14T13:00:01.068Z,67.60
2019-05-14T13:02:31.896Z,70.30
2019-05-14T13:05:03.333Z,69.20
2019-05-14T13:07:35.429Z,71.50
2019-05-14T13:10:09.200Z,71.50
2019-05-14T13:12:40.213Z,71.50
2019-05-14T13:15:12.177Z,72.40
2019-05-14T13:17:44.358Z,63.80
2019-05-14T13:20:18.368Z,65.20
2019-05-14T13:22:50.247Z,65.00
2019-05-14T13:25:20.971Z,57.30
2019-05-14T13:27:53.085Z,56.90
2019-05-14T13:30:23.955Z,56.20
2019-05-14T13:32:59.085Z,56.90
2019-05-14T13:35:29.336Z,58.60
2019-05-14T13:38:01.811Z,60.20
2019-05-14T13:40:32.710Z,62.40
2019-05-14T13:43:03.564Z,62.20
2019-05-14T13:45:34.389Z,63.50
2019-05-14T13:48:05.358Z,63.30
2019-05-14T13:50:39.497Z,61.70
2019-05-14T13:53:12.899Z,60.40
2019-05-14T13:55:46.172Z,56.00
2019-05-14T13:58:13.924Z,56.40
2019-05-14T14:00:45.181Z,58.60
2019-05-14T14:03:19.695Z,59.60
2019-05-14T14:05:50.084Z,60.60
2019-05-14T14:08:21.288Z,62.90
2019-05-14T14:10:54.140Z,63.30
2019-05-14T14:13:28.535Z,63.50
2019-05-14T14:15:58.954Z,61.90
2019-05-14T14:18:30.033Z,59.80
2019-05-14T14:21:00.832Z,59.40
2019-05-14T14:23:31.800Z,63.00
2019-05-14T14:26:02.743Z,56.60
2019-05-14T14:28:33.645Z,53.60
2019-05-14T14:31:07.434Z,56.50
2019-05-14T14:33:39.132Z,56.60
2019-05-14T14:36:09.442Z,55.30
2019-05-14T14:38:43.357Z,56.50
2019-05-14T14:41:14.178Z,56.60
2019-05-14T14:43:45.035Z,55.40
2019-05-14T14:46:15.958Z,55.10
2019-05-14T14:48:49.440Z,54.30
2019-05-14T14:51:20.497Z,54.60
2019-05-14T14:53:59.794Z,56.90
2019-05-14T14:56:23.686Z,56.70
2019-05-14T14:58:54.571Z,57.80
2019-05-14T15:01:25.363Z,58.00
2019-05-14T15:03:56.196Z,58.00
2019-05-14T15:06:30.355Z,56.70
2019-05-14T15:08:59.443Z,56.80
2019-05-14T15:11:30.262Z,56.80
2019-05-14T15:14:02.026Z,57.00
2019-05-14T15:16:34.077Z,60.70
2019-05-14T15:19:05.032Z,60.30
2019-05-14T15:21:37.274Z,60.60
2019-05-14T15:24:14.752Z,60.90
2019-05-14T15:26:40.519Z,63.20
2019-05-14T15:29:11.548Z,62.40
2019-05-14T15:31:42.950Z,59.80
2019-05-14T15:34:14.042Z,60.00
2019-05-14T15:36:49.339Z,59.60
2019-05-14T15:39:22.412Z,60.60
2019-05-14T15:41:52.047Z,60.00
2019-05-14T15:44:24.278Z,57.40
2019-05-14T15:46:58.756Z,59.40
2019-05-14T15:49:29.650Z,60.30
2019-05-14T15:52:00.625Z,59.00
2019-05-14T15:54:42.204Z,62.60
2019-05-14T15:57:04.358Z,64.20
2019-05-14T15:59:35.809Z,61.50
2019-05-14T16:02:09.337Z,60.60
2019-05-14T16:04:40.554Z,63.00
2019-05-14T16:07:12.748Z,60.60
2019-05-14T16:09:45.076Z,62.20
2019-05-14T16:12:16.229Z,62.80
2019-05-14T16:14:49.642Z,64.50
2019-05-14T16:17:24.868Z,66.20
2019-05-14T16:19:55.116Z,64.20
2019-05-14T16:22:29.170Z,66.20
2019-05-14T16:25:01.051Z,64.80
2019-05-14T16:27:35.034Z,65.20
2019-05-14T16:30:09.974Z,65.60
2019-05-14T16:32:41.389Z,64.50
2019-05-14T16:35:12.853Z,65.00
2019-05-14T16:37:45.058Z,63.70
2019-05-14T16:40:19.030Z,63.60
2019-05-14T16:42:49.120Z,64.30
2019-05-14T16:45:20.884Z,64.60
2019-05-14T16:47:54.285Z,66.10
2019-05-14T16:50:25.622Z,65.30
2019-05-14T16:52:58.975Z,65.20
2019-05-14T16:55:30.617Z,65.60
2019-05-14T16:58:02.044Z,65.90
2019-05-14T17:00:34.808Z,67.30
2019-05-14T17:03:08.175Z,66.50
2019-05-14T17:05:39.158Z,65.40
2019-05-14T17:08:10.352Z,66.00
2019-05-14T17:10:41.288Z,68.10
2019-05-14T17:13:12.944Z,64.90
2019-05-14T17:15:43.851Z,66.90
2019-05-14T17:18:15.581Z,68.40
2019-05-14T17:20:48.679Z,70.40
2019-05-14T17:23:19.296Z,67.50
2019-05-14T17:25:51.286Z,68.60
2019-05-14T17:28:22.565Z,68.20
2019-05-14T17:30:53.893Z,67.50
2019-05-14T17:33:24.794Z,68.50
2019-05-14T17:35:58.664Z,69.00
2019-05-14T17:38:29.489Z,70.20
2019-05-14T17:41:02.549Z,70.00
2019-05-14T17:43:34.480Z,70.90
2019-05-14T17:46:09.474Z,71.80
2019-05-14T17:48:41.018Z,71.80
2019-05-14T17:51:13.577Z,73.00
2019-05-14T17:53:48.081Z,71.90
2019-05-14T17:56:22.874Z,74.00
2019-05-14T17:58:57.970Z,74.40
2019-05-14T18:01:31.274Z,73.20
2019-05-14T18:04:04.740Z,75.20
2019-05-14T18:06:36.532Z,74.40
2019-05-14T18:09:09.157Z,75.80
2019-05-14T18:11:42.233Z,75.60
2019-05-14T18:14:15.390Z,74.80
2019-05-14T18:16:47.202Z,76.50
2019-05-14T18:19:19.950Z,75.70
2019-05-14T18:21:52.842Z,77.60
2019-05-14T18:24:28.536Z,78.50
2019-05-14T18:27:01.690Z,78.20
2019-05-14T18:29:38.943Z,78.20
2019-05-14T18:32:10.711Z,79.20
2019-05-14T18:34:42.348Z,80.40
2019-05-14T18:37:18.073Z,80.50
2019-05-14T18:39:50.546Z,81.80
2019-05-14T18:42:29.670Z,81.40
2019-05-14T18:45:04.062Z,82.20
2019-05-14T18:47:41.278Z,82.50
2019-05-14T18:50:19.355Z,82.40
2019-05-14T18:52:52.719Z,83.70
2019-05-14T18:55:29.572Z,83.30
2019-05-14T18:58:03.455Z,84.60
2019-05-14T19:00:39.791Z,85.40
2019-05-14T19:03:14.316Z,85.90
2019-05-14T19:05:48.220Z,86.50
2019-05-14T19:08:21.042Z,87.10
2019-05-14T19:10:53.462Z,88.90
2019-05-14T19:13:28.158Z,89.80
2019-05-14T19:16:01.733Z,90.00
2019-05-14T19:18:33.762Z,90.00
2019-05-14T19:21:05.027Z,91.50
2019-05-14T19:23:38.513Z,91.30
2019-05-14T19:26:13.396Z,92.10
2019-05-14T19:28:48.376Z,92.60
2019-05-14T19:31:19.037Z,93.40
2019-05-14T19:33:49.999Z,94.40
2019-05-14T19:36:22.476Z,94.50
2019-05-14T19:38:53.309Z,95.40
2019-05-14T19:41:24.152Z,96.00
2019-05-14T19:43:54.981Z,97.20
2019-05-14T19:46:25.834Z,98.70
2019-05-14T19:48:59.090Z,98.40
2019-05-14T19:51:30.662Z,99.90
2019-05-14T19:54:01.575Z,99.90
2019-05-14T19:56:47.090Z,99.90
2019-05-14T19:59:08.874Z,99.90
2019-05-14T20:01:38.775Z,99.90
2019-05-14T20:04:09.739Z,99.90
2019-05-14T20:06:44.266Z,99.90
2019-05-14T20:09:17.762Z,99.90
2019-05-14T20:11:49.123Z,99.90
2019-05-14T20:14:20.245Z,99.90
2019-05-14T20:16:52.812Z,99.90
2019-05-14T20:19:23.687Z,99.90
2019-05-14T20:21:54.410Z,99.90
2019-05-14T20:24:25.550Z,99.90
2019-05-14T20:27:05.895Z,99.90
2019-05-14T20:29:29.233Z,99.90
2019-05-14T20:32:01.849Z,99.90
2019-05-14T20:34:36.012Z,99.90
2019-05-14T20:37:08.470Z,99.90
2019-05-14T20:39:39.428Z,99.90
2019-05-14T20:42:10.150Z,99.90
2019-05-14T20:44:41.101Z,99.90
2019-05-14T20:49:43.446Z,99.90
2019-05-14T20:52:14.260Z,99.90
2019-05-14T20:54:45.011Z,99.90
2019-05-14T20:57:24.418Z,99.90
2019-05-14T20:59:48.336Z,99.90
2019-05-14T21:02:19.250Z,99.90
2019-05-14T21:04:54.520Z,99.90
2019-05-14T21:07:22.767Z,99.90
2019-05-14T21:09:53.800Z,99.90
2019-05-14T21:12:24.648Z,99.90
2019-05-14T21:14:55.676Z,99.90
2019-05-14T21:17:28.864Z,99.90
2019-05-14T21:19:59.654Z,99.90
2019-05-14T21:22:30.535Z,99.90
2019-05-14T21:25:01.578Z,99.90
2019-05-14T21:27:43.868Z,99.90
2019-05-14T21:30:09.106Z,99.90
2019-05-14T21:32:42.450Z,99.90
2019-05-14T21:35:11.925Z,99.90
2019-05-14T21:37:42.931Z,99.90
2019-05-14T21:40:14.718Z,99.90
2019-05-14T21:42:45.612Z,99.90
2019-05-14T21:45:18.100Z,99.90
2019-05-14T21:47:50.150Z,99.90
2019-05-14T21:52:51.327Z,99.90
2019-05-14T21:55:22.249Z,99.90
2019-05-14T21:57:57.257Z,99.90
2019-05-14T22:00:34.877Z,99.90
2019-05-14T22:03:10.154Z,99.90
2019-05-14T22:05:39.927Z,99.90
2019-05-14T22:08:12.195Z,99.90
2019-05-14T22:10:43.130Z,99.90
2019-05-14T22:13:13.891Z,99.90
2019-05-14T22:15:44.858Z,99.90
2019-05-14T22:18:20.521Z,99.90
2019-05-14T22:20:50.813Z,99.90
2019-05-14T22:23:21.737Z,99.90
2019-05-14T22:25:52.634Z,99.90
2019-05-14T22:28:23.481Z,99.90
2019-05-14T22:30:54.422Z,99.90
2019-05-14T22:33:25.312Z,99.90
2019-05-14T22:35:57.921Z,99.90
2019-05-14T22:38:29.302Z,99.90
2019-05-14T22:41:00.580Z,99.90
2019-05-14T22:43:31.568Z,99.90
2019-05-14T22:46:02.503Z,99.90
2019-05-14T22:48:33.442Z,99.90
2019-05-14T22:51:04.948Z,99.90
2019-05-14T22:53:36.009Z,99.90
2019-05-14T22:56:08.343Z,99.90
2019-05-14T22:58:43.365Z,99.90
2019-05-14T23:01:15.362Z,99.90
2019-05-14T23:03:48.720Z,99.90
2019-05-14T23:06:19.738Z,99.90
2019-05-14T23:08:50.858Z,99.90
2019-05-14T23:11:22.416Z,99.90
2019-05-14T23:13:53.674Z,99.90
2019-05-14T23:16:34.458Z,99.90
2019-05-14T23:18:59.136Z,99.90
2019-05-14T23:21:30.279Z,99.90
2019-05-14T23:24:01.724Z,99.90
2019-05-14T23:26:34.399Z,99.90
2019-05-14T23:29:05.953Z,99.90
2019-05-14T23:31:38.499Z,99.90
2019-05-14T23:34:10.426Z,99.90
2019-05-14T23:36:44.725Z,99.90
2019-05-14T23:39:16.360Z,99.90
2019-05-14T23:41:48.780Z,99.90
2019-05-14T23:44:20.076Z,99.90
2019-05-14T23:46:53.530Z,99.90
2019-05-14T23:49:24.599Z,99.90
2019-05-14T23:51:55.452Z,99.90
2019-05-14T23:54:26.288Z,99.90
2019-05-14T23:56:58.401Z,99.90
2019-05-14T23:59:29.438Z,99.90
